sensor_id;sensor_type;location;lat;lon;timestamp;pressure;altitude;pressure_sealevel;temperature;humidity
56928;BME280;60850;52.502;13.426;2023-11-21T00:01:35;100454.91;;;7.02;100.00
56928;BME280;60850;52.502;13.426;2023-11-21T00:04:04;100446.31;;;6.88;100.00
56928;BME280;60850;52.502;13.426;2023-11-21T00:06:33;100454.31;;;6.85;100.00
56928;BME280;60850;52.502;13.426;2023-11-21T00:09:00;100450.03;;;6.75;100.00
56928;BME280;60850;52.502;13.426;2023-11-21T00:11:27;100448.25;;;6.75;100.00
56928;BME280;60850;52.502;13.426;2023-11-21T00:13:54;100464.16;;;6.77;100.00
56928;BME280;60850;52.502;13.426;2023-11-21T00:16:21;100465.91;;;6.76;100.00
56928;BME280;60850;52.502;13.426;2023-11-21T00:18:49;100471.03;;;6.88;100.00
56928;BME280;60850;52.502;13.426;2023-11-21T00:21:18;100471.22;;;6.78;100.00
56928;BME280;60850;52.502;13.426;2023-11-21T00:23:45;100472.22;;;6.68;100.00
56928;BME280;60850;52.502;13.426;2023-11-21T00:26:11;100473.09;;;6.68;100.00
56928;BME280;60850;52.502;13.426;2023-11-21T00:28:40;100471.53;;;6.55;100.00
56928;BME280;60850;52.502;13.426;2023-11-21T00:31:05;100475.06;;;6.57;100.00
56928;BME280;60850;52.502;13.426;2023-11-21T00:33:33;100478.59;;;6.54;100.00
56928;BME280;60850;52.502;13.426;2023-11-21T00:35:59;100479.38;;;6.61;100.00
56928;BME280;60850;52.502;13.426;2023-11-21T00:38:28;100481.19;;;6.59;100.00
56928;BME280;60850;52.502;13.426;2023-11-21T00:40:55;100499.09;;;6.40;100.00
56928;BME280;60850;52.502;13.426;2023-11-21T00:43:22;100486.75;;;6.39;100.00
56928;BME280;60850;52.502;13.426;2023-11-21T00:45:50;100489.22;;;6.53;100.00
56928;BME280;60850;52.502;13.426;2023-11-21T00:48:17;100484.94;;;6.44;100.00
56928;BME280;60850;52.502;13.426;2023-11-21T00:50:45;100491.16;;;6.42;100.00
56928;BME280;60850;52.502;13.426;2023-11-21T00:53:16;100504.34;;;6.45;100.00
56928;BME280;60850;52.502;13.426;2023-11-21T00:55:44;100496.47;;;6.42;100.00
56928;BME280;60850;52.502;13.426;2023-11-21T00:58:11;100502.75;;;6.31;100.00
56928;BME280;60850;52.502;13.426;2023-11-21T01:00:38;100501.06;;;6.24;100.00
56928;BME280;60850;52.502;13.426;2023-11-21T01:03:06;100510.91;;;6.15;100.00
56928;BME280;60850;52.502;13.426;2023-11-21T01:05:33;100514.28;;;6.26;100.00
56928;BME280;60850;52.502;13.426;2023-11-21T01:08:01;100514.53;;;6.04;100.00
56928;BME280;60850;52.502;13.426;2023-11-21T01:10:28;100516.41;;;5.99;100.00
56928;BME280;60850;52.502;13.426;2023-11-21T01:12:57;100519.84;;;6.04;100.00
56928;BME280;60850;52.502;13.426;2023-11-21T01:15:24;100519.00;;;6.02;100.00
56928;BME280;60850;52.502;13.426;2023-11-21T01:17:52;100531.50;;;5.87;100.00
56928;BME280;60850;52.502;13.426;2023-11-21T01:20:18;100533.16;;;5.97;100.00
56928;BME280;60850;52.502;13.426;2023-11-21T01:22:45;100534.97;;;5.92;100.00
56928;BME280;60850;52.502;13.426;2023-11-21T01:25:14;100538.53;;;5.88;100.00
56928;BME280;60850;52.502;13.426;2023-11-21T01:27:42;100539.41;;;5.88;100.00
56928;BME280;60850;52.502;13.426;2023-11-21T01:30:10;100550.75;;;6.02;100.00
56928;BME280;60850;52.502;13.426;2023-11-21T01:32:38;100556.16;;;5.87;100.00
56928;BME280;60850;52.502;13.426;2023-11-21T01:35:06;100556.19;;;5.84;100.00
56928;BME280;60850;52.502;13.426;2023-11-21T01:37:33;100556.19;;;5.84;100.00
56928;BME280;60850;52.502;13.426;2023-11-21T01:40:00;100554.59;;;5.71;100.00
56928;BME280;60850;52.502;13.426;2023-11-21T01:42:28;100556.31;;;5.73;100.00
56928;BME280;60850;52.502;13.426;2023-11-21T01:44:55;100551.78;;;5.85;100.00
56928;BME280;60850;52.502;13.426;2023-11-21T01:47:24;100551.78;;;5.83;100.00
56928;BME280;60850;52.502;13.426;2023-11-21T01:49:51;100557.22;;;5.72;100.00
56928;BME280;60850;52.502;13.426;2023-11-21T01:52:19;100559.84;;;5.72;100.00
56928;BME280;60850;52.502;13.426;2023-11-21T01:54:46;100560.72;;;5.73;100.00
56928;BME280;60850;52.502;13.426;2023-11-21T01:57:13;100562.38;;;5.83;100.00
56928;BME280;60850;52.502;13.426;2023-11-21T01:59:42;100567.72;;;5.80;100.00
56928;BME280;60850;52.502;13.426;2023-11-21T02:02:09;100566.06;;;5.64;100.00
56928;BME280;60850;52.502;13.426;2023-11-21T02:04:38;100568.75;;;5.62;100.00
56928;BME280;60850;52.502;13.426;2023-11-21T02:07:05;100567.94;;;5.57;100.00
56928;BME280;60850;52.502;13.426;2023-11-21T02:09:32;100568.88;;;5.50;100.00
56928;BME280;60850;52.502;13.426;2023-11-21T02:12:00;100565.38;;;5.46;100.00
56928;BME280;60850;52.502;13.426;2023-11-21T02:14:27;100573.28;;;5.51;100.00
56928;BME280;60850;52.502;13.426;2023-11-21T02:16:55;100576.84;;;5.45;100.00
56928;BME280;60850;52.502;13.426;2023-11-21T02:19:22;100575.97;;;5.45;100.00
56928;BME280;60850;52.502;13.426;2023-11-21T02:21:53;100587.44;;;5.41;100.00
56928;BME280;60850;52.502;13.426;2023-11-21T02:24:22;100578.50;;;5.56;100.00
56928;BME280;60850;52.502;13.426;2023-11-21T02:26:50;100583.91;;;5.40;100.00
56928;BME280;60850;52.502;13.426;2023-11-21T02:29:17;100582.94;;;5.54;100.00
56928;BME280;60850;52.502;13.426;2023-11-21T02:31:48;100577.72;;;5.46;100.00
56928;BME280;60850;52.502;13.426;2023-11-21T02:34:15;100577.66;;;5.49;100.00
56928;BME280;60850;52.502;13.426;2023-11-21T02:36:43;100583.78;;;5.56;100.00
56928;BME280;60850;52.502;13.426;2023-11-21T02:39:10;100590.81;;;5.60;100.00
56928;BME280;60850;52.502;13.426;2023-11-21T02:41:39;100592.66;;;5.51;100.00
56928;BME280;60850;52.502;13.426;2023-11-21T02:44:06;100600.56;;;5.53;100.00
56928;BME280;60850;52.502;13.426;2023-11-21T02:46:34;100601.44;;;5.54;100.00
56928;BME280;60850;52.502;13.426;2023-11-21T02:49:01;100606.75;;;5.50;100.00
56928;BME280;60850;52.502;13.426;2023-11-21T02:51:28;100597.94;;;5.48;100.00
56928;BME280;60850;52.502;13.426;2023-11-21T02:53:55;100603.19;;;5.55;100.00
56928;BME280;60850;52.502;13.426;2023-11-21T02:56:24;100589.94;;;5.59;100.00
56928;BME280;60850;52.502;13.426;2023-11-21T02:58:55;100597.81;;;5.67;100.00
56928;BME280;60850;52.502;13.426;2023-11-21T03:01:22;100599.59;;;5.65;100.00
56928;BME280;60850;52.502;13.426;2023-11-21T03:03:50;100603.19;;;5.55;100.00
56928;BME280;60850;52.502;13.426;2023-11-21T03:06:18;100600.53;;;5.56;100.00
56928;BME280;60850;52.502;13.426;2023-11-21T03:08:45;100603.28;;;5.41;100.00
56928;BME280;60850;52.502;13.426;2023-11-21T03:11:12;100616.44;;;5.51;100.00
56928;BME280;60850;52.502;13.426;2023-11-21T03:13:40;100609.28;;;5.64;100.00
56928;BME280;60850;52.502;13.426;2023-11-21T03:16:10;100615.63;;;5.40;100.00
56928;BME280;60850;52.502;13.426;2023-11-21T03:18:37;100610.38;;;5.37;100.00
56928;BME280;60850;52.502;13.426;2023-11-21T03:21:05;100613.16;;;5.17;100.00
56928;BME280;60850;52.502;13.426;2023-11-21T03:23:34;100615.72;;;5.28;100.00
56928;BME280;60850;52.502;13.426;2023-11-21T03:26:01;100621.91;;;5.27;100.00
56928;BME280;60850;52.502;13.426;2023-11-21T03:28:29;100620.09;;;5.37;100.00
56928;BME280;60850;52.502;13.426;2023-11-21T03:30:56;100630.66;;;5.38;100.00
56928;BME280;60850;52.502;13.426;2023-11-21T03:33:24;100637.72;;;5.36;100.00
56928;BME280;60850;52.502;13.426;2023-11-21T03:35:51;100647.41;;;5.34;100.00
56928;BME280;60850;52.502;13.426;2023-11-21T03:38:19;100640.34;;;5.35;100.00
56928;BME280;60850;52.502;13.426;2023-11-21T03:40:46;100641.28;;;5.26;100.00
56928;BME280;60850;52.502;13.426;2023-11-21T03:43:14;100648.34;;;5.29;100.00
56928;BME280;60850;52.502;13.426;2023-11-21T03:45:41;100642.19;;;5.25;100.00
56928;BME280;60850;52.502;13.426;2023-11-21T03:48:08;100647.44;;;5.28;100.00
56928;BME280;60850;52.502;13.426;2023-11-21T03:50:36;100650.00;;;5.42;100.00
56928;BME280;60850;52.502;13.426;2023-11-21T03:53:04;100659.75;;;5.34;100.00
56928;BME280;60850;52.502;13.426;2023-11-21T03:55:31;100661.50;;;5.36;100.00
56928;BME280;60850;52.502;13.426;2023-11-21T03:57:58;100662.44;;;5.24;100.00
56928;BME280;60850;52.502;13.426;2023-11-21T04:00:25;100667.75;;;5.24;100.00
56928;BME280;60850;52.502;13.426;2023-11-21T04:02:53;100666.06;;;5.08;100.00
56928;BME280;60850;52.502;13.426;2023-11-21T04:05:21;100676.63;;;5.11;100.00
56928;BME280;60850;52.502;13.426;2023-11-21T04:07:50;100674.88;;;5.09;100.00
56928;BME280;60850;52.502;13.426;2023-11-21T04:10:17;100681.97;;;4.97;100.00
56928;BME280;60850;52.502;13.426;2023-11-21T04:12:45;100676.69;;;4.97;100.00
56928;BME280;60850;52.502;13.426;2023-11-21T04:15:12;100676.66;;;5.05;100.00
56928;BME280;60850;52.502;13.426;2023-11-21T04:17:40;100685.53;;;4.84;100.00
56928;BME280;60850;52.502;13.426;2023-11-21T04:20:08;100683.75;;;4.92;100.00
56928;BME280;60850;52.502;13.426;2023-11-21T04:22:37;100682.88;;;4.90;100.00
56928;BME280;60850;52.502;13.426;2023-11-21T04:25:08;100693.47;;;4.89;100.00
56928;BME280;60850;52.502;13.426;2023-11-21T04:27:36;100690.81;;;4.89;100.00
56928;BME280;60850;52.502;13.426;2023-11-21T04:30:04;100704.97;;;4.74;100.00
56928;BME280;60850;52.502;13.426;2023-11-21T04:32:32;100699.66;;;4.79;100.00
56928;BME280;60850;52.502;13.426;2023-11-21T04:34:59;100698.75;;;4.83;100.00
56928;BME280;60850;52.502;13.426;2023-11-21T04:37:26;100694.38;;;4.80;100.00
56928;BME280;60850;52.502;13.426;2023-11-21T04:39:53;100704.91;;;4.88;100.00
56928;BME280;60850;52.502;13.426;2023-11-21T04:42:21;100707.56;;;4.88;100.00
56928;BME280;60850;52.502;13.426;2023-11-21T04:44:48;100711.94;;;4.90;100.00
56928;BME280;60850;52.502;13.426;2023-11-21T04:47:15;100708.41;;;5.01;100.00
56928;BME280;60850;52.502;13.426;2023-11-21T04:49:46;100715.50;;;4.86;100.00
56928;BME280;60850;52.502;13.426;2023-11-21T04:52:13;100714.59;;;4.90;100.00
56928;BME280;60850;52.502;13.426;2023-11-21T04:54:40;100712.84;;;4.83;100.00
56928;BME280;60850;52.502;13.426;2023-11-21T04:57:08;100715.47;;;4.94;100.00
56928;BME280;60850;52.502;13.426;2023-11-21T04:59:37;100714.59;;;4.93;100.00
56928;BME280;60850;52.502;13.426;2023-11-21T05:02:04;100717.22;;;4.93;100.00
56928;BME280;60850;52.502;13.426;2023-11-21T05:04:31;100723.38;;;4.95;100.00
56928;BME280;60850;52.502;13.426;2023-11-21T05:06:58;100726.91;;;4.90;100.00
56928;BME280;60850;52.502;13.426;2023-11-21T05:09:26;100737.44;;;4.93;100.00
56928;BME280;60850;52.502;13.426;2023-11-21T05:11:54;100737.53;;;4.79;100.00
56928;BME280;60850;52.502;13.426;2023-11-21T05:14:21;100750.69;;;4.91;100.00
56928;BME280;60850;52.502;13.426;2023-11-21T05:16:50;100748.00;;;4.97;100.00
56928;BME280;60850;52.502;13.426;2023-11-21T05:19:17;100748.91;;;4.92;100.00
56928;BME280;60850;52.502;13.426;2023-11-21T05:21:44;100751.59;;;4.77;100.00
56928;BME280;60850;52.502;13.426;2023-11-21T05:24:11;100755.13;;;4.80;100.00
56928;BME280;60850;52.502;13.426;2023-11-21T05:26:38;100761.28;;;4.82;100.00
56928;BME280;60850;52.502;13.426;2023-11-21T05:29:05;100749.84;;;4.76;100.00
56928;BME280;60850;52.502;13.426;2023-11-21T05:31:32;100760.44;;;4.74;100.00
56928;BME280;60850;52.502;13.426;2023-11-21T05:34:01;100756.88;;;4.81;100.00
56928;BME280;60850;52.502;13.426;2023-11-21T05:36:28;100757.78;;;4.80;100.00
56928;BME280;60850;52.502;13.426;2023-11-21T05:38:55;100768.34;;;4.73;100.00
56928;BME280;60850;52.502;13.426;2023-11-21T05:41:22;100769.19;;;4.82;100.00
56928;BME280;60850;52.502;13.426;2023-11-21T05:43:49;100770.09;;;4.72;100.00
56928;BME280;60850;52.502;13.426;2023-11-21T05:46:16;100774.50;;;4.68;100.00
56928;BME280;60850;52.502;13.426;2023-11-21T05:48:43;100782.41;;;4.78;100.00
56928;BME280;60850;52.502;13.426;2023-11-21T05:51:12;100781.53;;;4.80;100.00
56928;BME280;60850;52.502;13.426;2023-11-21T05:53:39;100795.63;;;4.76;100.00
56928;BME280;60850;52.502;13.426;2023-11-21T05:56:07;100791.22;;;4.77;100.00
56928;BME280;60850;52.502;13.426;2023-11-21T05:58:34;100793.84;;;4.72;100.00
56928;BME280;60850;52.502;13.426;2023-11-21T06:01:01;100785.06;;;4.82;100.00
56928;BME280;60850;52.502;13.426;2023-11-21T06:03:28;100793.00;;;4.79;100.00
56928;BME280;60850;52.502;13.426;2023-11-21T06:05:55;100802.66;;;4.77;100.00
56928;BME280;60850;52.502;13.426;2023-11-21T06:08:23;100804.44;;;4.61;100.00
56928;BME280;60850;52.502;13.426;2023-11-21T06:10:50;100813.25;;;4.60;100.00
56928;BME280;60850;52.502;13.426;2023-11-21T06:13:17;100815.91;;;4.60;100.00
56928;BME280;60850;52.502;13.426;2023-11-21T06:15:50;100815.88;;;4.71;100.00
56928;BME280;60850;52.502;13.426;2023-11-21T06:18:16;100827.31;;;4.64;100.00
56928;BME280;60850;52.502;13.426;2023-11-21T06:20:45;100825.59;;;4.66;100.00
56928;BME280;60850;52.502;13.426;2023-11-21T06:23:12;100822.91;;;4.71;100.00
56928;BME280;60850;52.502;13.426;2023-11-21T06:25:41;100824.69;;;4.75;100.00
56928;BME280;60850;52.502;13.426;2023-11-21T06:28:07;100842.28;;;4.74;100.00
56928;BME280;60850;52.502;13.426;2023-11-21T06:30:35;100840.53;;;4.70;100.00
56928;BME280;60850;52.502;13.426;2023-11-21T06:33:01;100843.19;;;4.59;100.00
56928;BME280;60850;52.502;13.426;2023-11-21T06:35:29;100842.28;;;4.68;100.00
56928;BME280;60850;52.502;13.426;2023-11-21T06:37:59;100850.22;;;4.59;100.00
56928;BME280;60850;52.502;13.426;2023-11-21T06:40:26;100861.66;;;4.55;100.00
56928;BME280;60850;52.502;13.426;2023-11-21T06:42:54;100855.47;;;4.65;100.00
56928;BME280;60850;52.502;13.426;2023-11-21T06:45:21;100863.44;;;4.60;100.00
56928;BME280;60850;52.502;13.426;2023-11-21T06:47:48;100869.59;;;4.61;100.00
56928;BME280;60850;52.502;13.426;2023-11-21T06:50:16;100871.31;;;4.71;100.00
56928;BME280;60850;52.502;13.426;2023-11-21T06:52:43;100873.09;;;4.60;100.00
56928;BME280;60850;52.502;13.426;2023-11-21T06:55:10;100881.00;;;4.57;100.00
56928;BME280;60850;52.502;13.426;2023-11-21T06:57:37;100869.56;;;4.49;100.00
56928;BME280;60850;52.502;13.426;2023-11-21T07:00:07;100880.16;;;4.53;100.00
56928;BME280;60850;52.502;13.426;2023-11-21T07:02:35;100867.81;;;4.40;100.00
56928;BME280;60850;52.502;13.426;2023-11-21T07:05:02;100883.66;;;4.40;100.00
56928;BME280;60850;52.502;13.426;2023-11-21T07:07:29;100880.13;;;4.43;100.00
56928;BME280;60850;52.502;13.426;2023-11-21T07:09:57;100885.44;;;4.59;100.00
56928;BME280;60850;52.502;13.426;2023-11-21T07:12:29;100882.78;;;4.55;100.00
56928;BME280;60850;52.502;13.426;2023-11-21T07:14:57;100889.81;;;4.54;100.00
56928;BME280;60850;52.502;13.426;2023-11-21T07:17:25;100892.47;;;4.59;100.00
56928;BME280;60850;52.502;13.426;2023-11-21T07:19:52;100895.97;;;4.46;100.00
56928;BME280;60850;52.502;13.426;2023-11-21T07:22:19;100901.28;;;4.44;100.00
56928;BME280;60850;52.502;13.426;2023-11-21T07:24:48;100905.66;;;4.40;100.00
56928;BME280;60850;52.502;13.426;2023-11-21T07:27:16;100897.72;;;4.36;100.00
56928;BME280;60850;52.502;13.426;2023-11-21T07:29:43;100899.47;;;4.35;100.00
56928;BME280;60850;52.502;13.426;2023-11-21T07:32:10;100900.38;;;4.40;100.00
56928;BME280;60850;52.502;13.426;2023-11-21T07:34:40;100900.34;;;4.36;100.00
56928;BME280;60850;52.502;13.426;2023-11-21T07:37:07;100912.66;;;4.35;100.00
56928;BME280;60850;52.502;13.426;2023-11-21T07:39:34;100909.16;;;4.33;100.00
56928;BME280;60850;52.502;13.426;2023-11-21T07:42:01;100910.03;;;4.41;100.00
56928;BME280;60850;52.502;13.426;2023-11-21T07:44:29;100918.00;;;4.45;100.00
56928;BME280;60850;52.502;13.426;2023-11-21T07:46:55;100923.25;;;4.40;100.00
56928;BME280;60850;52.502;13.426;2023-11-21T07:49:23;100917.09;;;4.44;100.00
56928;BME280;60850;52.502;13.426;2023-11-21T07:51:51;100920.63;;;4.54;100.00
56928;BME280;60850;52.502;13.426;2023-11-21T07:54:19;100924.16;;;4.53;100.00
56928;BME280;60850;52.502;13.426;2023-11-21T07:56:46;100918.84;;;4.50;100.00
56928;BME280;60850;52.502;13.426;2023-11-21T07:59:14;100922.38;;;4.50;100.00
56928;BME280;60850;52.502;13.426;2023-11-21T08:01:40;100927.66;;;4.50;100.00
56928;BME280;60850;52.502;13.426;2023-11-21T08:04:09;100934.72;;;4.66;100.00
56928;BME280;60850;52.502;13.426;2023-11-21T08:06:35;100930.31;;;4.70;100.00
56928;BME280;60850;52.502;13.426;2023-11-21T08:09:04;100941.75;;;4.69;100.00
56928;BME280;60850;52.502;13.426;2023-11-21T08:11:33;100953.22;;;4.76;100.00
56928;BME280;60850;52.502;13.426;2023-11-21T08:14:01;100957.63;;;4.80;100.00
56928;BME280;60850;52.502;13.426;2023-11-21T08:16:28;100962.91;;;4.81;100.00
56928;BME280;60850;52.502;13.426;2023-11-21T08:18:55;100962.88;;;4.60;100.00
56928;BME280;60850;52.502;13.426;2023-11-21T08:21:22;100965.53;;;4.58;100.00
56928;BME280;60850;52.502;13.426;2023-11-21T08:23:50;100965.50;;;4.49;100.00
56928;BME280;60850;52.502;13.426;2023-11-21T08:26:21;100958.47;;;4.56;100.00
56928;BME280;60850;52.502;13.426;2023-11-21T08:28:49;100961.94;;;4.33;100.00
56928;BME280;60850;52.502;13.426;2023-11-21T08:31:22;100957.53;;;4.23;100.00
56928;BME280;60850;52.502;13.426;2023-11-21T08:33:50;100969.00;;;4.37;100.00
56928;BME280;60850;52.502;13.426;2023-11-21T08:36:17;100966.34;;;4.33;100.00
56928;BME280;60850;52.502;13.426;2023-11-21T08:38:44;100961.91;;;4.29;100.00
56928;BME280;60850;52.502;13.426;2023-11-21T08:41:10;100976.00;;;4.25;100.00
56928;BME280;60850;52.502;13.426;2023-11-21T08:43:39;100972.47;;;4.27;100.00
56928;BME280;60850;52.502;13.426;2023-11-21T08:46:06;100979.50;;;4.28;100.00
56928;BME280;60850;52.502;13.426;2023-11-21T08:48:35;100990.13;;;4.42;100.00
56928;BME280;60850;52.502;13.426;2023-11-21T08:51:02;100982.16;;;4.24;100.00
56928;BME280;60850;52.502;13.426;2023-11-21T08:53:30;100985.66;;;4.21;100.00
56928;BME280;60850;52.502;13.426;2023-11-21T08:55:58;100996.25;;;4.33;100.00
56928;BME280;60850;52.502;13.426;2023-11-21T08:58:25;100998.00;;;4.25;100.00
56928;BME280;60850;52.502;13.426;2023-11-21T09:00:53;100989.19;;;4.23;100.00
56928;BME280;60850;52.502;13.426;2023-11-21T09:03:20;100997.97;;;4.19;100.00
56928;BME280;60850;52.502;13.426;2023-11-21T09:05:47;101000.63;;;4.27;100.00
56928;BME280;60850;52.502;13.426;2023-11-21T09:08:15;101005.06;;;4.34;100.00
56928;BME280;60850;52.502;13.426;2023-11-21T09:10:42;101019.03;;;4.14;100.00
56928;BME280;60850;52.502;13.426;2023-11-21T09:13:13;101009.41;;;4.29;100.00
56928;BME280;60850;52.502;13.426;2023-11-21T09:15:42;101018.28;;;4.38;100.00
56928;BME280;60850;52.502;13.426;2023-11-21T09:18:13;101022.63;;;4.24;100.00
56928;BME280;60850;52.502;13.426;2023-11-21T09:20:41;101034.91;;;4.16;100.00
56928;BME280;60850;52.502;13.426;2023-11-21T09:23:08;101034.91;;;4.19;100.00
56928;BME280;60850;52.502;13.426;2023-11-21T09:25:35;101032.31;;;4.24;100.00
56928;BME280;60850;52.502;13.426;2023-11-21T09:28:03;101042.78;;;4.14;100.00
56928;BME280;60850;52.502;13.426;2023-11-21T09:30:33;101047.19;;;4.14;100.00
56928;BME280;60850;52.502;13.426;2023-11-21T09:33:00;101043.69;;;4.12;100.00
56928;BME280;60850;52.502;13.426;2023-11-21T09:35:29;101047.19;;;4.11;100.00
56928;BME280;60850;52.502;13.426;2023-11-21T09:37:56;101060.31;;;4.00;100.00
56928;BME280;60850;52.502;13.426;2023-11-21T09:40:23;101063.00;;;4.05;100.00
56928;BME280;60850;52.502;13.426;2023-11-21T09:42:54;101062.09;;;4.07;100.00
56928;BME280;60850;52.502;13.426;2023-11-21T09:45:25;101066.56;;;4.16;100.00
56928;BME280;60850;52.502;13.426;2023-11-21T09:47:53;101059.56;;;4.26;100.00
56928;BME280;60850;52.502;13.426;2023-11-21T09:50:21;101064.03;;;4.42;100.00
56928;BME280;60850;52.502;13.426;2023-11-21T09:52:58;101061.38;;;4.44;100.00
56928;BME280;60850;52.502;13.426;2023-11-21T09:55:34;101076.41;;;4.52;100.00
56928;BME280;60850;52.502;13.426;2023-11-21T09:58:03;101077.16;;;4.28;100.00
56928;BME280;60850;52.502;13.426;2023-11-21T10:00:34;101076.31;;;4.31;100.00
56928;BME280;60850;52.502;13.426;2023-11-21T10:03:02;101069.28;;;4.36;100.00
56928;BME280;60850;52.502;13.426;2023-11-21T10:05:29;101078.09;;;4.38;100.00
56928;BME280;60850;52.502;13.426;2023-11-21T10:08:02;101078.13;;;4.47;100.00
56928;BME280;60850;52.502;13.426;2023-11-21T10:10:32;101070.09;;;4.21;100.00
56928;BME280;60850;52.502;13.426;2023-11-21T10:13:02;101077.16;;;4.28;100.00
56928;BME280;60850;52.502;13.426;2023-11-21T10:15:33;101071.88;;;4.25;100.00
56928;BME280;60850;52.502;13.426;2023-11-21T10:18:05;101077.13;;;4.18;100.00
56928;BME280;60850;52.502;13.426;2023-11-21T10:20:34;101086.84;;;4.23;100.00
56928;BME280;60850;52.502;13.426;2023-11-21T10:23:05;101073.59;;;4.17;100.00
56928;BME280;60850;52.502;13.426;2023-11-21T10:25:33;101079.72;;;4.14;100.00
56928;BME280;60850;52.502;13.426;2023-11-21T10:28:03;101089.38;;;4.08;100.00
56928;BME280;60850;52.502;13.426;2023-11-21T10:30:33;101081.50;;;4.14;100.00
56928;BME280;60850;52.502;13.426;2023-11-21T10:33:03;101087.66;;;4.13;100.00
56928;BME280;60850;52.502;13.426;2023-11-21T10:35:42;101087.69;;;4.19;100.00
56928;BME280;60850;52.502;13.426;2023-11-21T10:38:14;101098.25;;;4.19;100.00
56928;BME280;60850;52.502;13.426;2023-11-21T10:40:41;101093.81;;;4.13;100.00
56928;BME280;60850;52.502;13.426;2023-11-21T10:43:10;101099.91;;;4.06;100.00
56928;BME280;60850;52.502;13.426;2023-11-21T10:45:38;101115.88;;;4.23;100.00
56928;BME280;60850;52.502;13.426;2023-11-21T10:48:06;101106.16;;;4.18;100.00
56928;BME280;60850;52.502;13.426;2023-11-21T10:50:34;101118.38;;;4.03;100.00
56928;BME280;60850;52.502;13.426;2023-11-21T10:53:02;101121.03;;;4.06;100.00
56928;BME280;60850;52.502;13.426;2023-11-21T10:55:32;101115.63;;;3.86;100.00
56928;BME280;60850;52.502;13.426;2023-11-21T10:58:01;101126.22;;;3.90;100.00
56928;BME280;60850;52.502;13.426;2023-11-21T11:00:31;101121.81;;;3.89;100.00
56928;BME280;60850;52.502;13.426;2023-11-21T11:02:59;101126.16;;;3.83;100.00
56928;BME280;60850;52.502;13.426;2023-11-21T11:05:27;101120.00;;;3.84;100.00
56928;BME280;60850;52.502;13.426;2023-11-21T11:07:58;101125.31;;;3.89;100.00
56928;BME280;60850;52.502;13.426;2023-11-21T11:10:29;101122.66;;;3.88;100.00
56928;BME280;60850;52.502;13.426;2023-11-21T11:12:58;101122.75;;;3.97;100.00
56928;BME280;60850;52.502;13.426;2023-11-21T11:15:26;101115.66;;;3.91;100.00
56928;BME280;60850;52.502;13.426;2023-11-21T11:17:54;101125.28;;;3.86;100.00
56928;BME280;60850;52.502;13.426;2023-11-21T11:20:25;101130.66;;;4.01;100.00
56928;BME280;60850;52.502;13.426;2023-11-21T11:23:10;101126.19;;;3.88;100.00
56928;BME280;60850;52.502;13.426;2023-11-21T11:26:05;101134.06;;;3.86;100.00
56928;BME280;60850;52.502;13.426;2023-11-21T11:28:44;101133.28;;;4.01;100.00
56928;BME280;60850;52.502;13.426;2023-11-21T11:31:19;101145.44;;;3.78;100.00
56928;BME280;60850;52.502;13.426;2023-11-21T11:33:53;101143.75;;;3.84;100.00
56928;BME280;60850;52.502;13.426;2023-11-21T11:36:28;101151.63;;;3.80;100.00
56928;BME280;60850;52.502;13.426;2023-11-21T11:38:56;101144.56;;;3.74;100.00
56928;BME280;60850;52.502;13.426;2023-11-21T11:41:27;101162.13;;;3.74;100.00
56928;BME280;60850;52.502;13.426;2023-11-21T11:43:56;101175.44;;;3.89;100.00
56928;BME280;60850;52.502;13.426;2023-11-21T11:46:41;101167.41;;;3.77;100.00
56928;BME280;60850;52.502;13.426;2023-11-21T11:49:08;101164.78;;;3.78;100.00
56928;BME280;60850;52.502;13.426;2023-11-21T11:51:36;101171.75;;;3.70;100.00
56928;BME280;60850;52.502;13.426;2023-11-21T11:54:03;101173.44;;;3.62;100.00
56928;BME280;60850;52.502;13.426;2023-11-21T11:56:33;101176.97;;;3.64;100.00
56928;BME280;60850;52.502;13.426;2023-11-21T11:59:04;101184.06;;;3.71;100.00
56928;BME280;60850;52.502;13.426;2023-11-21T12:01:34;101180.66;;;3.84;100.00
56928;BME280;60850;52.502;13.426;2023-11-21T12:04:23;101192.97;;;3.84;100.00
56928;BME280;60850;52.502;13.426;2023-11-21T12:06:56;101192.91;;;3.75;100.00
56928;BME280;60850;52.502;13.426;2023-11-21T12:09:26;101198.13;;;3.70;100.00
56928;BME280;60850;52.502;13.426;2023-11-21T12:11:55;101203.41;;;3.73;100.00
56928;BME280;60850;52.502;13.426;2023-11-21T12:14:24;101201.75;;;3.83;100.00
56928;BME280;60850;52.502;13.426;2023-11-21T12:16:52;101209.56;;;3.71;100.00
56928;BME280;60850;52.502;13.426;2023-11-21T12:19:19;101215.78;;;3.77;100.00
56928;BME280;60850;52.502;13.426;2023-11-21T12:21:48;101215.91;;;3.93;100.00
56928;BME280;60850;52.502;13.426;2023-11-21T12:24:16;101226.38;;;3.86;100.00
56928;BME280;60850;52.502;13.426;2023-11-21T12:26:43;101220.22;;;3.83;100.00
56928;BME280;60850;52.502;13.426;2023-11-21T12:29:11;101226.31;;;3.77;100.00
56928;BME280;60850;52.502;13.426;2023-11-21T12:31:39;101227.94;;;3.63;100.00
56928;BME280;60850;52.502;13.426;2023-11-21T12:34:07;101232.28;;;3.56;100.00
56928;BME280;60850;52.502;13.426;2023-11-21T12:36:37;101234.91;;;3.55;100.00
56928;BME280;60850;52.502;13.426;2023-11-21T12:39:04;101242.66;;;3.43;100.00
56928;BME280;60850;52.502;13.426;2023-11-21T12:41:31;101244.41;;;3.41;100.00
56928;BME280;60850;52.502;13.426;2023-11-21T12:43:58;101249.75;;;3.47;100.00
56928;BME280;60850;52.502;13.426;2023-11-21T12:46:26;101255.94;;;3.52;100.00